Time;durP1;ratioP1;P1;durP2;ratioP2;P2;SDS_P1;SDS_P2;PMS_P1;PMS_P2;Temp;Humidity;BMP_temperature;BMP_pressure;BME280_temperature;BME280_humidity;BME280_pressure;Samples;Min_cycle;Max_cycle;Signal;HPM_P1;HPM_P2
2022/10/06 00:00:46;;;;;;;;;5.00;3.67;;;;;16.17;59.65;102342.72;5020325;28;45276;-84
2022/10/06 00:03:11;;;;;;;;;1.33;1.00;;;;;16.18;59.75;102355.09;5021594;28;45237;-84
2022/10/06 00:05:37;;;;;;;;;3.00;1.33;;;;;16.13;60.00;102356.88;5020642;28;45249;-84
2022/10/06 00:08:05;;;;;;;;;1.00;1.00;;;;;16.09;59.73;102363.97;5020068;28;47267;-85
2022/10/06 00:10:31;;;;;;;;;6.33;2.33;;;;;16.00;59.91;102352.44;5037241;28;45423;-86
2022/10/06 00:12:57;;;;;;;;;1.00;1.00;;;;;16.08;59.82;102367.50;5036725;28;45492;-84
2022/10/06 00:15:26;;;;;;;;;3.33;2.33;;;;;16.03;60.13;102361.28;5022282;28;45324;-83
2022/10/06 00:17:56;;;;;;;;;3.67;0.33;;;;;15.93;59.96;102362.22;5024293;28;45619;-84
2022/10/06 00:20:22;;;;;;;;;2.00;0.33;;;;;15.93;59.88;102372.84;5040158;28;45319;-84
2022/10/06 00:22:51;;;;;;;;;4.00;3.00;;;;;15.83;60.22;102379.00;5021927;28;45278;-84
2022/10/06 00:25:22;;;;;;;;;3.67;2.33;;;;;15.81;59.87;102394.06;5033574;28;45502;-85
2022/10/06 00:27:51;;;;;;;;;2.00;2.00;;;;;15.79;60.18;102409.97;5012024;28;46339;-85
2022/10/06 00:30:26;;;;;;;;;4.00;1.00;;;;;15.73;60.28;102404.66;5025006;28;45302;-84
2022/10/06 00:33:00;;;;;;;;;3.00;1.00;;;;;15.66;60.47;102403.75;5011813;28;45231;-84
2022/10/06 00:35:28;;;;;;;;;1.67;0.00;;;;;15.59;60.95;102395.75;5040220;28;45601;-85
2022/10/06 00:37:54;;;;;;;;;2.00;0.00;;;;;15.60;61.01;102409.03;5023695;28;45535;-84
2022/10/06 00:40:23;;;;;;;;;2.67;1.00;;;;;15.55;60.71;102401.94;5023155;28;45807;-84
2022/10/06 00:43:00;;;;;;;;;2.00;0.00;;;;;15.55;61.00;102410.78;5024048;28;45189;-85
2022/10/06 00:45:29;;;;;;;;;2.00;2.00;;;;;15.54;61.10;102414.31;5023404;28;45244;-84
2022/10/06 00:48:01;;;;;;;;;1.00;1.00;;;;;15.52;61.16;102413.44;5022167;28;47844;-85
2022/10/06 00:50:27;;;;;;;;;0.00;0.00;;;;;15.54;61.15;102427.59;5023706;28;45257;-86
2022/10/06 00:52:55;;;;;;;;;2.00;2.00;;;;;15.50;61.36;102423.16;5024120;28;45521;-84
2022/10/06 00:55:23;;;;;;;;;1.00;1.00;;;;;15.54;61.10;102427.59;5023330;28;45480;-84
2022/10/06 00:57:54;;;;;;;;;0.00;0.00;;;;;15.52;60.96;102418.75;5038693;28;48137;-86
2022/10/06 01:00:22;;;;;;;;;1.00;1.00;;;;;15.53;61.18;102422.28;5038951;28;45441;-85
2022/10/06 01:02:56;;;;;;;;;1.33;1.00;;;;;15.54;61.08;102429.38;5038903;28;45310;-85
2022/10/06 01:05:34;;;;;;;;;3.33;1.67;;;;;15.52;61.14;102433.78;5023757;28;45957;-84
2022/10/06 01:08:02;;;;;;;;;1.00;1.00;;;;;15.47;61.34;102438.19;5024068;28;47379;-84
2022/10/06 01:10:28;;;;;;;;;4.00;2.00;;;;;15.44;61.52;102434.63;5025927;28;45493;-84
2022/10/06 01:12:56;;;;;;;;;3.00;2.00;;;;;15.49;61.27;102447.06;5024721;28;45839;-85
2022/10/06 01:15:23;;;;;;;;;5.67;1.33;;;;;15.38;61.48;102433.75;5023070;28;45517;-85
2022/10/06 01:17:56;;;;;;;;;2.67;2.00;;;;;15.39;61.49;102454.09;5023817;28;46023;-85
2022/10/06 01:20:23;;;;;;;;;5.33;3.33;;;;;15.37;61.14;102450.53;5039002;28;45478;-84
2022/10/06 01:22:54;;;;;;;;;2.00;2.00;;;;;15.30;61.67;102443.44;5023772;28;45162;-84
2022/10/06 01:25:21;;;;;;;;;3.00;1.00;;;;;15.30;61.35;102456.72;5023254;28;45330;-85
2022/10/06 01:27:52;;;;;;;;;2.00;0.67;;;;;15.28;61.69;102456.69;5037211;28;47623;-85
2022/10/06 01:30:25;;;;;;;;;3.67;2.67;;;;;15.24;61.65;102460.22;5021950;28;45532;-84
2022/10/06 01:32:58;;;;;;;;;3.00;2.00;;;;;15.20;61.43;102455.78;5011009;28;45238;-84
2022/10/06 01:35:31;;;;;;;;;1.67;1.00;;;;;15.22;61.61;102470.81;5023280;28;45410;-85
2022/10/06 01:38:00;;;;;;;;;6.33;2.67;;;;;15.19;61.90;102467.28;5023450;28;46460;-85
2022/10/06 01:40:27;;;;;;;;;2.33;1.33;;;;;15.16;61.65;102467.28;5038395;28;45908;-84
2022/10/06 01:42:55;;;;;;;;;2.33;1.00;;;;;15.12;61.50;102454.84;5038736;28;45498;-85
2022/10/06 01:45:23;;;;;;;;;3.00;2.67;;;;;15.16;61.68;102472.56;5022312;28;45534;-85
2022/10/06 01:47:51;;;;;;;;;3.00;2.00;;;;;15.14;61.41;102458.41;5023718;28;46356;-86
2022/10/06 01:50:17;;;;;;;;;2.00;1.67;;;;;15.12;61.37;102460.16;5039094;28;46108;-84
2022/10/06 01:52:42;;;;;;;;;1.33;1.33;;;;;15.07;61.49;102454.81;5024103;28;45224;-85
2022/10/06 01:55:13;;;;;;;;;5.00;4.33;;;;;15.11;61.51;102467.25;5024001;28;45273;-86
2022/10/06 01:57:40;;;;;;;;;2.00;2.00;;;;;15.06;61.14;102452.19;5023421;28;46373;-85
2022/10/06 02:00:07;;;;;;;;;4.33;1.67;;;;;15.13;61.24;102470.78;5024265;28;45178;-85
2022/10/06 02:02:32;;;;;;;;;1.00;0.67;;;;;15.04;61.49;102473.38;5026496;28;45213;-85
2022/10/06 02:04:58;;;;;;;;;3.00;1.67;;;;;15.07;61.38;102469.84;5024998;28;45467;-86
2022/10/06 02:07:26;;;;;;;;;2.67;2.67;;;;;15.11;61.26;102482.28;5024110;28;45511;-85
2022/10/06 02:09:51;;;;;;;;;3.67;2.33;;;;;15.03;61.21;102484.88;5026480;28;45463;-84
2022/10/06 02:12:19;;;;;;;;;2.67;1.00;;;;;15.00;60.96;102484.88;5039206;28;45342;-86
2022/10/06 02:14:47;;;;;;;;;3.00;2.00;;;;;15.05;61.03;102485.78;5039943;28;45180;-86
2022/10/06 02:17:13;;;;;;;;;2.00;2.00;;;;;15.00;60.84;102487.53;5023271;28;45455;-85
2022/10/06 02:19:38;;;;;;;;;3.00;1.00;;;;;14.99;60.79;102488.38;5022704;28;45470;-85
2022/10/06 02:22:04;;;;;;;;;1.00;1.00;;;;;14.99;60.81;102498.97;5023747;28;45624;-86
2022/10/06 02:24:34;;;;;;;;;4.00;3.00;;;;;14.97;61.12;102499.00;5038650;28;45421;-85
2022/10/06 02:26:59;;;;;;;;;4.67;4.00;;;;;14.95;60.76;102500.75;5023177;28;46062;-86
2022/10/06 02:29:25;;;;;;;;;3.33;3.00;;;;;15.00;60.70;102508.75;5038413;28;45376;-85
2022/10/06 02:31:51;;;;;;;;;1.67;1.33;;;;;14.96;60.96;102506.94;5009934;28;45683;-85
2022/10/06 02:34:16;;;;;;;;;7.33;2.33;;;;;14.98;60.64;102510.50;5021466;28;45481;-86
2022/10/06 02:36:42;;;;;;;;;5.00;4.00;;;;;14.89;60.61;102503.38;5022768;28;45422;-85
2022/10/06 02:39:09;;;;;;;;;5.67;3.00;;;;;14.93;60.75;102509.56;5021490;28;45805;-86
2022/10/06 02:41:35;;;;;;;;;2.67;2.33;;;;;14.95;60.57;102519.31;5021729;28;45465;-86
2022/10/06 02:44:00;;;;;;;;;7.00;3.00;;;;;14.87;60.20;102507.75;5038485;28;45344;-85
2022/10/06 02:46:26;;;;;;;;;6.67;2.33;;;;;14.82;60.69;102508.63;5037672;28;47406;-85
2022/10/06 02:48:52;;;;;;;;;3.00;2.00;;;;;14.77;60.52;102508.56;5023358;28;45319;-85
2022/10/06 02:51:21;;;;;;;;;5.67;3.00;;;;;14.79;60.39;102517.44;5028966;28;45245;-84
2022/10/06 02:53:49;;;;;;;;;3.00;3.00;;;;;14.78;60.48;102527.16;5026290;28;45553;-85
2022/10/06 02:56:26;;;;;;;;;6.33;4.00;;;;;14.78;60.54;102536.84;5039370;28;48189;-84
2022/10/06 02:59:03;;;;;;;;;2.67;1.00;;;;;14.71;60.65;102532.41;5015248;28;46043;-84
2022/10/06 03:01:29;;;;;;;;;2.00;2.00;;;;;14.69;60.63;102540.31;5035624;28;45430;-85
2022/10/06 03:03:55;;;;;;;;;2.00;2.00;;;;;14.63;60.62;102534.97;5021982;28;45956;-85
2022/10/06 03:06:35;;;;;;;;;2.00;2.00;;;;;14.62;60.55;102546.47;5038340;28;47074;-85
2022/10/06 03:09:04;;;;;;;;;4.00;1.33;;;;;14.58;60.61;102542.00;5022823;28;45358;-85
2022/10/06 03:11:35;;;;;;;;;1.33;1.00;;;;;14.51;60.47;102541.03;5021644;28;45208;-85
2022/10/06 03:14:10;;;;;;;;;7.00;4.00;;;;;14.48;60.75;102542.75;5021430;28;45490;-85
2022/10/06 03:16:38;;;;;;;;;4.00;3.33;;;;;14.33;60.84;102523.19;5009344;28;48145;-85
2022/10/06 03:19:09;;;;;;;;;4.67;1.67;;;;;14.39;61.01;102540.03;5025641;28;45409;-85
2022/10/06 03:21:42;;;;;;;;;3.33;2.33;;;;;14.36;60.80;102546.19;5037348;28;45422;-85
2022/10/06 03:24:16;;;;;;;;;4.00;1.67;;;;;14.28;60.69;102535.50;5020365;28;45462;-85
2022/10/06 03:26:44;;;;;;;;;6.00;4.33;;;;;14.36;60.73;102551.50;5020719;28;46874;-86
2022/10/06 03:29:10;;;;;;;;;3.00;2.00;;;;;14.36;61.40;102559.44;5042608;28;45516;-85
2022/10/06 03:31:36;;;;;;;;;6.25;3.00;;;;;14.35;60.74;102557.63;5012114;28;45257;-85
2022/10/06 03:34:02;;;;;;;;;6.50;4.75;;;;;14.27;61.34;102559.31;5020146;28;45557;-86
2022/10/06 03:36:31;;;;;;;;;3.00;2.00;;;;;14.27;60.92;102559.31;5038003;28;47908;-85
2022/10/06 03:38:59;;;;;;;;;1.00;1.00;;;;;14.28;61.20;102563.78;5021365;28;45486;-85
2022/10/06 03:41:30;;;;;;;;;3.67;3.00;;;;;14.29;61.22;102569.06;5022787;28;45284;-85
2022/10/06 03:43:57;;;;;;;;;4.25;2.50;;;;;14.19;60.75;102567.19;5037614;28;45521;-85
2022/10/06 03:46:26;;;;;;;;;2.33;1.00;;;;;14.27;61.40;102581.44;5020626;28;47351;-85
2022/10/06 03:48:56;;;;;;;;;0.67;0.33;;;;;14.27;60.76;102584.09;5037713;28;45427;-85
2022/10/06 03:51:28;;;;;;;;;2.75;2.50;;;;;14.23;61.02;102590.22;5021631;28;45249;-85
2022/10/06 03:53:56;;;;;;;;;4.00;3.00;;;;;14.25;61.08;102591.13;5037639;28;45253;-85
2022/10/06 03:56:28;;;;;;;;;4.25;3.00;;;;;14.20;61.40;102594.59;5025653;28;48658;-85
2022/10/06 03:58:55;;;;;;;;;1.50;1.00;;;;;14.11;61.56;102582.13;5030329;28;45267;-85
2022/10/06 04:01:24;;;;;;;;;4.00;3.25;;;;;14.22;61.08;102598.13;5034214;28;45236;-86
2022/10/06 04:03:54;;;;;;;;;5.50;4.00;;;;;14.13;61.53;102591.84;5039558;28;44831;-85
2022/10/06 04:06:22;;;;;;;;;4.75;3.50;;;;;14.18;61.79;102612.22;5022446;28;47430;-85
2022/10/06 04:08:49;;;;;;;;;3.00;3.00;;;;;14.10;61.70;102599.78;5023519;28;45300;-85
2022/10/06 04:11:19;;;;;;;;;3.25;2.50;;;;;14.18;61.35;102612.22;5034306;28;45415;-84
2022/10/06 04:13:44;;;;;;;;;1.25;1.00;;;;;14.15;61.40;102607.78;5031415;28;45478;-85
2022/10/06 04:16:19;;;;;;;;;3.25;2.50;;;;;14.15;61.34;102620.13;5022194;28;46842;-86
2022/10/06 04:18:51;;;;;;;;;3.75;3.25;;;;;14.11;61.63;102620.09;5019677;28;45271;-86
2022/10/06 04:21:19;;;;;;;;;2.75;2.25;;;;;14.05;61.30;102612.06;5020853;28;45390;-85
2022/10/06 04:23:45;;;;;;;;;3.50;3.00;;;;;14.03;61.35;102615.56;5036534;28;45528;-84
2022/10/06 04:26:15;;;;;;;;;5.67;2.00;;;;;14.06;61.38;102619.16;5021372;28;45566;-85
2022/10/06 04:28:44;;;;;;;;;3.33;2.00;;;;;13.98;61.55;102610.25;5021451;28;45387;-85
2022/10/06 04:31:29;;;;;;;;;4.33;1.67;;;;;14.04;61.44;102626.19;5015198;28;45368;-85
2022/10/06 04:33:57;;;;;;;;;5.50;2.75;;;;;14.03;61.84;102626.16;5017493;28;45502;-86
2022/10/06 04:36:29;;;;;;;;;2.33;2.00;;;;;14.00;61.97;102624.34;5020795;28;46982;-86
2022/10/06 04:38:58;;;;;;;;;5.00;3.33;;;;;14.00;61.89;102637.59;5020365;28;46065;-86
2022/10/06 04:41:36;;;;;;;;;6.00;4.50;;;;;14.03;61.79;102636.75;5022103;28;45321;-86
2022/10/06 04:44:03;;;;;;;;;1.00;1.00;;;;;13.98;61.59;102636.72;5037094;28;45347;-85
2022/10/06 04:46:30;;;;;;;;;3.50;3.00;;;;;14.02;62.04;102637.63;5037219;28;47717;-85
2022/10/06 04:48:57;;;;;;;;;5.50;3.00;;;;;14.01;61.53;102639.41;5007703;28;45254;-86
2022/10/06 04:51:26;;;;;;;;;3.00;3.00;;;;;14.02;61.75;102643.81;5024455;28;45496;-86
2022/10/06 04:53:52;;;;;;;;;3.00;2.50;;;;;13.97;61.81;102642.88;5040451;28;45281;-86
2022/10/06 04:56:18;;;;;;;;;4.00;3.00;;;;;14.02;62.25;102658.81;5022042;28;46042;-85
2022/10/06 04:58:46;;;;;;;;;3.25;3.00;;;;;13.95;62.02;102646.34;5027005;28;44786;-86
2022/10/06 05:01:23;;;;;;;;;8.00;5.33;;;;;14.01;61.85;102662.34;5020401;28;45374;-85
2022/10/06 05:03:51;;;;;;;;;6.67;5.00;;;;;14.01;61.83;102660.59;5037101;28;45899;-82
2022/10/06 05:06:22;;;;;;;;;6.75;6.00;;;;;13.99;61.17;102662.31;5020557;28;46326;-82
2022/10/06 05:08:49;;;;;;;;;3.33;1.33;;;;;13.91;61.67;102661.34;5028644;28;45312;-82
2022/10/06 05:11:20;;;;;;;;;5.00;4.67;;;;;13.92;61.69;102663.09;5022021;28;45461;-82
2022/10/06 05:13:46;;;;;;;;;3.33;2.00;;;;;13.90;61.71;102670.16;5022146;28;45473;-82
2022/10/06 05:16:16;;;;;;;;;4.67;4.00;;;;;13.77;62.02;102653.22;5022012;28;45260;-83
2022/10/06 05:18:42;;;;;;;;;7.50;4.75;;;;;13.84;62.28;102667.41;5022165;28;45375;-83
2022/10/06 05:21:11;;;;;;;;;2.00;2.00;;;;;13.83;62.14;102660.34;5020954;28;45575;-84
2022/10/06 05:23:42;;;;;;;;;5.50;1.00;;;;;13.76;62.29;102656.69;5022620;28;45227;-84
2022/10/06 05:26:11;;;;;;;;;4.50;4.50;;;;;13.83;61.98;102668.28;5008317;28;47204;-85
2022/10/06 05:28:39;;;;;;;;;3.50;3.50;;;;;13.74;62.38;102663.75;5021024;28;45273;-85
2022/10/06 05:31:37;;;;;;;;;5.75;4.25;;;;;13.81;62.41;102673.53;5016029;28;45330;-86
2022/10/06 05:34:06;;;;;;;;;1.00;0.75;;;;;13.75;62.25;102669.94;5017891;28;45494;-85
2022/10/06 05:36:34;;;;;;;;;3.00;3.00;;;;;13.65;62.07;102675.06;5020720;28;47104;-83
2022/10/06 05:38:59;;;;;;;;;3.00;3.00;;;;;13.68;62.20;102683.09;5020189;28;45347;-83
2022/10/06 05:41:27;;;;;;;;;2.50;1.75;;;;;13.67;62.77;102689.22;5023050;28;45463;-83
2022/10/06 05:43:53;;;;;;;;;3.00;1.50;;;;;13.63;62.63;102691.81;5037154;28;45465;-83
2022/10/06 05:46:23;;;;;;;;;4.00;3.00;;;;;13.61;62.42;102688.25;5021514;28;46571;-84
2022/10/06 05:48:51;;;;;;;;;4.00;2.50;;;;;13.64;62.75;102688.31;5020522;28;45466;-85
2022/10/06 05:51:18;;;;;;;;;3.25;2.00;;;;;13.55;62.49;102675.84;5021676;28;45415;-82
2022/10/06 05:53:44;;;;;;;;;5.75;3.75;;;;;13.56;62.55;102680.25;5037302;28;45465;-82
2022/10/06 05:56:19;;;;;;;;;4.00;3.00;;;;;13.59;62.47;102693.53;5036705;28;47224;-82
2022/10/06 05:58:47;;;;;;;;;3.25;3.25;;;;;13.59;62.88;102693.53;5009908;28;45183;-82
2022/10/06 06:01:18;;;;;;;;;3.25;2.50;;;;;13.57;62.37;102689.97;5020548;28;45331;-83
2022/10/06 06:03:53;;;;;;;;;3.75;3.00;;;;;13.63;63.01;102703.31;5036378;28;45999;-82
2022/10/06 06:06:36;;;;;;;;;4.50;3.00;;;;;13.58;62.83;102694.41;5021079;28;45295;-83
2022/10/06 06:09:06;;;;;;;;;7.00;5.75;;;;;13.64;62.54;102705.06;5021378;28;45417;-82
2022/10/06 06:11:33;;;;;;;;;7.75;3.75;;;;;13.59;62.82;102688.22;5027003;28;45240;-83
2022/10/06 06:14:04;;;;;;;;;4.75;4.50;;;;;13.61;62.77;102690.91;5020755;28;45481;-83
2022/10/06 06:16:32;;;;;;;;;6.50;5.25;;;;;13.59;62.81;102688.22;5036272;28;47578;-84
2022/10/06 06:18:59;;;;;;;;;3.75;3.75;;;;;13.68;62.95;102706.91;5019534;28;45514;-85
2022/10/06 06:21:26;;;;;;;;;3.00;2.25;;;;;13.63;62.86;102700.66;5036393;28;45441;-86
2022/10/06 06:23:55;;;;;;;;;6.50;4.25;;;;;13.66;62.87;102706.00;5018177;28;45490;-86
2022/10/06 06:26:23;;;;;;;;;5.50;3.50;;;;;13.66;62.83;102715.69;5019778;28;47333;-85
2022/10/06 06:28:53;;;;;;;;;5.00;4.00;;;;;13.70;62.67;102721.91;5036149;28;46004;-87
2022/10/06 06:31:20;;;;;;;;;7.75;5.25;;;;;13.72;62.98;102722.84;5028321;28;45457;-83
2022/10/06 06:33:50;;;;;;;;;5.00;4.25;;;;;13.72;62.90;102729.00;5018198;28;45239;-83
2022/10/06 06:36:25;;;;;;;;;3.50;3.50;;;;;13.70;62.87;102727.22;5019428;28;47524;-82
2022/10/06 06:38:54;;;;;;;;;5.50;4.75;;;;;13.67;62.35;102731.59;5035958;28;45426;-83
2022/10/06 06:41:24;;;;;;;;;10.50;4.50;;;;;13.76;62.53;102735.22;5035620;28;45230;-83
2022/10/06 06:43:52;;;;;;;;;5.00;5.00;;;;;13.79;62.73;102745.88;5018995;28;45482;-84
2022/10/06 06:46:19;;;;;;;;;3.25;2.00;;;;;13.76;62.52;102735.22;5018324;28;48020;-83
2022/10/06 06:48:46;;;;;;;;;5.50;4.50;;;;;13.76;62.35;102745.81;5020336;28;45794;-83
2022/10/06 06:51:12;;;;;;;;;10.25;5.75;;;;;13.74;62.23;102745.81;5019521;28;45268;-82
2022/10/06 06:53:39;;;;;;;;;4.25;2.25;;;;;13.79;62.38;102754.72;5007311;28;45581;-83
2022/10/06 06:56:08;;;;;;;;;4.50;2.75;;;;;13.77;62.49;102750.28;5035753;28;47718;-83
2022/10/06 06:58:35;;;;;;;;;4.00;4.00;;;;;13.75;62.61;102747.59;5016642;28;45249;-82
2022/10/06 07:01:12;;;;;;;;;4.50;2.50;;;;;13.76;62.67;102754.66;5012429;28;45297;-83
2022/10/06 07:03:39;;;;;;;;;8.25;4.25;;;;;13.80;62.30;102763.56;5035836;28;45275;-84
2022/10/06 07:06:09;;;;;;;;;5.25;3.25;;;;;13.71;62.60;102744.84;5020105;28;47767;-83
2022/10/06 07:08:36;;;;;;;;;3.00;2.25;;;;;13.74;62.79;102753.75;5020442;28;45325;-83
2022/10/06 07:11:18;;;;;;;;;5.00;5.00;;;;;13.83;62.41;102774.19;5020005;28;45440;-84
2022/10/06 07:13:52;;;;;;;;;5.00;4.25;;;;;13.86;62.67;102782.16;5035308;28;45185;-84
2022/10/06 07:25:06;;;;;;;;;7.50;3.50;;;;;13.81;62.29;102789.16;5010728;28;45241;-84
2022/10/06 07:27:35;;;;;;;;;3.50;3.50;;;;;13.83;62.29;102792.72;5034831;28;47313;-83
2022/10/06 07:30:04;;;;;;;;;4.00;2.00;;;;;13.86;62.34;102800.69;5038361;28;46214;-83
2022/10/06 07:32:31;;;;;;;;;3.00;3.00;;;;;13.86;62.03;102806.00;5019924;28;45311;-83
2022/10/06 07:34:57;;;;;;;;;7.00;6.50;;;;;13.90;62.16;102806.09;5015653;28;45431;-84
2022/10/06 07:37:26;;;;;;;;;7.50;5.00;;;;;13.92;62.27;102807.84;5024457;28;47058;-86
2022/10/06 07:39:51;;;;;;;;;8.00;7.50;;;;;13.91;62.15;102809.63;5011237;28;45524;-82
2022/10/06 07:42:19;;;;;;;;;5.00;4.50;;;;;13.97;62.42;102825.59;5017977;28;45383;-84
2022/10/06 07:45:36;;;;;;;;;5.75;3.75;;;;;13.94;62.40;102819.38;5018055;28;45474;-84
2022/10/06 07:47:32;;;;;;;;;5.50;4.00;;;;;14.02;62.17;102823.03;5013720;28;45446;-86
2022/10/06 07:49:57;;;;;;;;;3.75;2.75;;;;;14.10;62.10;102819.63;5034030;28;45941;-93
2022/10/06 07:52:24;;;;;;;;;6.25;4.75;;;;;14.14;62.06;102823.22;5017673;28;45229;-80
2022/10/06 07:54:49;;;;;;;;;5.75;5.00;;;;;14.08;61.78;102816.03;5016218;28;45394;-80
2022/10/06 07:57:15;;;;;;;;;3.00;2.75;;;;;14.20;61.91;102831.25;5034469;28;47730;-80
2022/10/06 07:59:40;;;;;;;;;5.00;4.00;;;;;14.26;62.01;102833.97;5018748;28;45425;-80
2022/10/06 08:02:06;;;;;;;;;6.25;4.75;;;;;14.27;61.79;102821.63;5019068;28;45413;-80
2022/10/06 08:04:31;;;;;;;;;3.25;1.75;;;;;14.33;61.96;102832.31;5018811;28;45406;-80
2022/10/06 08:06:57;;;;;;;;;7.25;4.75;;;;;14.39;61.44;102834.16;5034338;28;46937;-80
2022/10/06 08:09:25;;;;;;;;;8.00;6.25;;;;;14.45;61.55;102834.25;5018831;28;45434;-80
2022/10/06 08:11:52;;;;;;;;;7.00;6.00;;;;;14.48;61.50;102834.28;5018662;28;45411;-80
2022/10/06 08:14:18;;;;;;;;;4.25;4.25;;;;;14.57;61.32;102850.38;5014170;28;45530;-80
2022/10/06 08:16:43;;;;;;;;;3.25;3.25;;;;;14.53;61.03;102843.22;5017569;28;46924;-80
2022/10/06 08:19:10;;;;;;;;;4.75;2.25;;;;;14.63;61.07;102850.44;5010823;28;45353;-80
2022/10/06 08:21:38;;;;;;;;;3.75;1.75;;;;;14.67;61.03;102844.28;5034677;28;45373;-80
2022/10/06 08:24:04;;;;;;;;;5.00;3.50;;;;;14.80;61.40;102848.00;5018096;28;45439;-80
2022/10/06 08:26:30;;;;;;;;;6.50;2.50;;;;;14.84;61.41;102848.94;5017239;28;47185;-80
2022/10/06 08:28:58;;;;;;;;;2.00;1.00;;;;;14.93;60.70;102855.22;5033866;28;45264;-80
2022/10/06 08:31:24;;;;;;;;;5.00;3.00;;;;;14.93;60.52;102852.59;5025121;28;45406;-80
2022/10/06 08:33:54;;;;;;;;;2.00;0.67;;;;;14.99;61.02;102854.41;5017467;28;45561;-81
2022/10/06 08:36:20;;;;;;;;;4.33;4.33;;;;;15.08;60.77;102851.00;5033672;28;48027;-78
2022/10/06 08:38:49;;;;;;;;;8.00;5.00;;;;;15.20;60.51;102859.09;5019414;28;45232;-80
2022/10/06 08:41:33;;;;;;;;;6.33;2.00;;;;;15.30;60.52;102866.28;5037019;28;45390;-80
2022/10/06 08:44:06;;;;;;;;;3.00;2.33;;;;;15.38;60.10;102871.66;5021604;28;46023;-80
2022/10/06 08:46:40;;;;;;;;;2.00;2.00;;;;;15.38;60.02;102856.63;5020031;28;47406;-80
2022/10/06 08:49:15;;;;;;;;;4.67;4.00;;;;;15.42;59.73;102853.16;5037132;28;45332;-80
2022/10/06 08:51:48;;;;;;;;;3.33;3.33;;;;;15.49;59.71;102866.47;5022009;28;45231;-79
2022/10/06 08:54:32;;;;;;;;;3.00;2.00;;;;;15.55;59.39;102866.53;5036676;28;45568;-80
2022/10/06 08:57:23;;;;;;;;;5.67;4.00;;;;;15.65;59.19;102871.94;5021401;28;46688;-81
2022/10/06 08:59:52;;;;;;;;;4.33;1.67;;;;;15.73;59.05;102873.81;5020589;28;45541;-80
2022/10/06 09:02:31;;;;;;;;;5.67;3.67;;;;;15.78;59.09;102875.63;5019826;28;45819;-82
2022/10/06 09:05:00;;;;;;;;;4.00;2.67;;;;;15.82;58.96;102879.19;5019575;28;45623;-82
2022/10/06 09:08:00;;;;;;;;;6.67;3.00;;;;;15.93;58.61;102879.28;5020279;28;47447;-80
2022/10/06 09:10:51;;;;;;;;;4.00;2.00;;;;;15.98;58.83;102880.22;5013337;28;45326;-83
2022/10/06 09:13:24;;;;;;;;;3.00;2.00;;;;;16.00;58.84;102870.50;5015043;28;45481;-80
2022/10/06 09:15:58;;;;;;;;;4.67;2.00;;;;;16.10;58.59;102878.56;5021167;28;45446;-81
2022/10/06 09:18:29;;;;;;;;;2.00;2.00;;;;;16.16;58.58;102883.03;5017521;28;45581;-81
2022/10/06 09:21:00;;;;;;;;;5.67;2.67;;;;;16.24;58.31;102885.75;5021269;28;45241;-82
2022/10/06 09:34:27;;;;;;;;;4.00;3.00;;;;;16.57;57.64;102885.06;4922069;28;45474;-88
2022/10/06 09:37:06;;;;;;;;;4.00;4.00;;;;;16.64;57.59;102889.53;4936477;28;45973;-82
2022/10/06 09:39:37;;;;;;;;;3.67;3.00;;;;;16.69;57.38;102885.13;4982008;28;45673;-82
2022/10/06 09:42:09;;;;;;;;;3.33;3.33;;;;;16.81;57.34;102894.09;5016682;28;47440;-82
2022/10/06 09:44:50;;;;;;;;;1.00;1.00;;;;;16.87;57.44;102880.84;5021137;28;45284;-83
2022/10/06 09:47:35;;;;;;;;;3.33;2.00;;;;;16.97;56.67;102885.28;5020888;28;45437;-83
2022/10/06 09:50:15;;;;;;;;;8.75;7.00;;;;;17.07;56.77;102889.78;5017393;28;45386;-84
2022/10/06 09:53:08;;;;;;;;;3.67;3.00;;;;;17.15;56.53;102884.47;5036135;28;47193;-83
2022/10/06 09:55:37;;;;;;;;;1.33;1.00;;;;;17.27;56.16;102891.59;5012551;28;45386;-84
2022/10/06 09:58:28;;;;;;;;;3.33;2.00;;;;;17.35;56.29;102885.44;5020171;28;45382;-83
2022/10/06 10:00:56;;;;;;;;;7.00;5.00;;;;;17.45;56.26;102883.66;5013147;28;45313;-86
2022/10/06 10:03:30;;;;;;;;;5.00;3.00;;;;;17.57;55.95;102890.81;5017858;28;47596;-84
2022/10/06 10:05:55;;;;;;;;;5.33;3.00;;;;;17.66;55.60;102887.25;5003663;28;45357;-82
2022/10/06 10:08:26;;;;;;;;;6.00;5.50;;;;;17.70;55.43;102875.75;5020377;28;45376;-83
2022/10/06 10:11:06;;;;;;;;;3.33;2.00;;;;;17.83;54.95;102883.78;5018821;28;45471;-83
2022/10/06 10:13:42;;;;;;;;;4.33;2.67;;;;;17.91;54.90;102886.44;5035193;28;47357;-83
2022/10/06 10:16:18;;;;;;;;;5.00;4.00;;;;;18.00;54.80;102886.44;5035910;28;45492;-82
2022/10/06 10:18:48;;;;;;;;;6.00;3.33;;;;;18.10;53.99;102875.78;5029386;28;45873;-82
2022/10/06 10:21:32;;;;;;;;;3.67;2.67;;;;;18.22;53.72;102884.63;5018322;28;45577;-80
2022/10/06 10:24:02;;;;;;;;;5.00;4.00;;;;;18.34;53.60;102869.53;5014635;28;46329;-86
2022/10/06 10:26:43;;;;;;;;;4.33;2.00;;;;;18.46;53.22;102869.47;5018688;28;45703;-80
2022/10/06 10:29:29;;;;;;;;;0.33;0.33;;;;;18.65;52.75;102872.97;5017943;28;45352;-81
2022/10/06 10:32:20;;;;;;;;;2.00;1.00;;;;;18.78;52.77;102874.75;5005074;28;45610;-86
2022/10/06 10:35:10;;;;;;;;;5.00;4.00;;;;;18.97;51.69;102869.34;5010382;28;47331;-82
2022/10/06 10:37:50;;;;;;;;;3.00;1.00;;;;;19.12;51.33;102864.81;5016826;28;45390;-81
2022/10/06 10:40:22;;;;;;;;;3.00;3.00;;;;;19.29;51.29;102859.38;5034607;28;45510;-81
2022/10/06 10:43:16;;;;;;;;;4.67;4.00;;;;;19.51;50.41;102868.16;5025642;28;45656;-81
2022/10/06 10:45:50;;;;;;;;;1.67;1.00;;;;;19.66;49.93;102853.81;5022310;28;46216;-81
2022/10/06 10:48:29;;;;;;;;;5.33;3.00;;;;;19.82;49.37;102858.13;5011573;28;45509;-82
2022/10/06 10:51:11;;;;;;;;;4.00;2.00;;;;;20.02;49.29;102860.63;5001708;28;45594;-81
2022/10/06 10:53:59;;;;;;;;;4.67;1.33;;;;;20.27;49.22;102863.06;5018538;28;45240;-80
2022/10/06 10:56:30;;;;;;;;;4.00;2.67;;;;;20.49;48.41;102855.69;5013123;28;47106;-81
2022/10/06 10:59:06;;;;;;;;;3.00;2.67;;;;;20.62;47.51;102849.31;5009973;28;45387;-79
2022/10/06 11:01:54;;;;;;;;;5.00;3.00;;;;;20.75;47.32;102858.09;5014887;28;45355;-81
2022/10/06 11:04:19;;;;;;;;;3.00;3.00;;;;;20.85;46.90;102859.75;5011010;28;45619;-79
2022/10/06 11:06:45;;;;;;;;;1.33;1.33;;;;;20.95;46.72;102849.81;5018250;28;45473;-80
2022/10/06 11:09:27;;;;;;;;;3.00;3.00;;;;;21.14;46.03;102858.47;5018097;28;45403;-79
2022/10/06 11:12:17;;;;;;;;;6.33;2.00;;;;;21.34;45.73;102850.16;5018809;28;45355;-84
2022/10/06 11:15:03;;;;;;;;;1.33;1.33;;;;;21.54;44.78;102849.88;5030788;28;46527;-82
2022/10/06 11:17:49;;;;;;;;;2.00;2.00;;;;;21.70;44.53;102848.72;5029802;28;46785;-81
2022/10/06 11:20:37;;;;;;;;;0.00;0.00;;;;;21.92;44.47;102840.28;5018410;28;45602;-83
2022/10/06 11:23:27;;;;;;;;;2.00;2.00;;;;;22.26;44.30;102848.66;5029932;28;45608;-81
2022/10/06 11:26:11;;;;;;;;;2.33;2.00;;;;;22.60;43.61;102848.88;5013832;28;45569;-82
2022/10/06 11:29:03;;;;;;;;;2.67;1.00;;;;;22.78;42.36;102846.75;5018137;28;45683;-82
2022/10/06 11:31:49;;;;;;;;;2.00;1.00;;;;;23.01;42.24;102843.56;5009515;28;45513;-83
2022/10/06 11:34:14;;;;;;;;;0.67;0.67;;;;;23.33;41.73;102834.75;5034153;28;45565;-86
2022/10/06 11:36:53;;;;;;;;;1.00;1.00;;;;;23.74;40.84;102832.91;5019227;28;45477;-88
2022/10/06 11:39:39;;;;;;;;;0.00;0.00;;;;;24.32;38.98;102839.41;5006973;28;45657;-86
2022/10/06 11:42:16;;;;;;;;;1.00;1.00;;;;;26.21;39.64;102832.59;5038060;28;46060;-87
2022/10/06 11:44:58;;;;;;;;;0.67;0.33;;;;;29.45;36.72;102825.91;5017813;28;45388;-83
2022/10/06 11:47:32;;;;;;;;;1.67;1.67;;;;;31.96;33.49;102823.84;5003799;28;46259;-83
2022/10/06 11:50:01;;;;;;;;;2.33;2.00;;;;;33.57;30.99;102827.13;5001156;28;46294;-83
2022/10/06 11:52:26;;;;;;;;;1.00;1.00;;;;;34.91;29.41;102817.59;5016112;28;45449;-87
2022/10/06 11:55:07;;;;;;;;;1.00;0.67;;;;;36.08;27.41;102826.03;5001576;28;45291;-84
2022/10/06 11:57:53;;;;;;;;;1.33;0.00;;;;;36.93;26.65;102825.53;5016339;28;45435;-87
2022/10/06 12:00:19;;;;;;;;;2.00;1.00;;;;;37.52;24.77;102819.63;5010727;28;46245;-83
2022/10/06 12:02:45;;;;;;;;;0.67;0.67;;;;;37.39;23.86;102815.31;5017880;28;45470;-85